Time;durP1;ratioP1;P1;durP2;ratioP2;P2;SDS_P1;SDS_P2;PMS_P1;PMS_P2;Temp;Humidity;BMP_temperature;BMP_pressure;BME280_temperature;BME280_humidity;BME280_pressure;Samples;Min_cycle;Max_cycle;Signal;HPM_P1;HPM_P2
2022/01/27 00:01:30;;;;;;;24.60;13.80;;;;;;;2.70;83.91;100482.83;130422;1268;106888;-81
2022/01/27 00:04:38;;;;;;;20.50;12.60;;;;;;;2.61;83.84;100479.30;130393;1267;109420;-80
2022/01/27 00:07:44;;;;;;;24.40;13.80;;;;;;;2.48;83.93;100479.45;130403;1268;109738;-80
2022/01/27 00:10:53;;;;;;;24.60;13.70;;;;;;;2.42;84.26;100482.79;130497;1266;107787;-80
2022/01/27 00:14:02;;;;;;;20.20;11.60;;;;;;;2.44;84.27;100483.79;130504;1268;107586;-81
2022/01/27 00:17:13;;;;;;;21.50;12.80;;;;;;;2.47;84.40;100478.29;130606;1267;108554;-79
2022/01/27 00:20:18;;;;;;;62.80;28.80;;;;;;;2.48;84.36;100471.70;130562;1267;108959;-82
2022/01/27 00:23:24;;;;;;;31.60;13.90;;;;;;;2.46;84.11;100467.64;130601;1266;108692;-79
2022/01/27 00:26:29;;;;;;;27.40;13.70;;;;;;;2.47;84.22;100473.56;130507;1268;108919;-81
2022/01/27 00:29:35;;;;;;;33.60;14.00;;;;;;;2.47;84.11;100471.11;130606;1266;106958;-86
2022/01/27 00:32:40;;;;;;;26.50;13.20;;;;;;;2.47;84.17;100467.77;130854;1267;107660;-87
2022/01/27 00:35:46;;;;;;;37.10;19.90;;;;;;;2.48;84.14;100462.95;131085;1268;107497;-84
2022/01/27 00:38:51;;;;;;;30.70;13.00;;;;;;;2.50;84.37;100466.19;131457;1268;107684;-89
2022/01/27 00:42:02;;;;;;;25.50;14.80;;;;;;;2.55;84.25;100465.83;131110;1268;107633;-86
2022/01/27 00:45:09;;;;;;;27.10;14.70;;;;;;;2.60;84.27;100463.07;131407;1266;107417;-83
2022/01/27 00:48:17;;;;;;;22.80;13.50;;;;;;;2.62;84.41;100459.79;130494;1268;107658;-86
2022/01/27 00:51:26;;;;;;;25.10;12.40;;;;;;;2.65;84.44;100464.55;130619;1268;109380;-86
2022/01/27 00:54:32;;;;;;;21.20;12.00;;;;;;;2.61;84.22;100464.75;130552;1267;108739;-84
2022/01/27 00:57:51;;;;;;;19.80;10.90;;;;;;;2.59;84.19;100465.23;130527;1267;105732;-87
2022/01/27 01:01:01;;;;;;;19.00;10.40;;;;;;;2.61;84.37;100468.81;130693;1267;108555;-91
2022/01/27 01:04:09;;;;;;;20.80;11.10;;;;;;;2.60;84.31;100465.70;130498;1268;107708;-86
2022/01/27 01:07:16;;;;;;;22.10;11.40;;;;;;;2.63;84.34;100457.77;130434;1267;108577;-85
2022/01/27 01:17:30;;;;;;;29.60;16.20;;;;;;;2.67;84.31;100461.73;130519;1267;108652;-86
2022/01/27 01:30:52;;;;;;;25.60;13.50;;;;;;;2.81;84.17;100451.23;130484;1266;107609;-85
2022/01/27 01:34:10;;;;;;;27.80;15.20;;;;;;;2.80;84.27;100445.29;130517;1268;109689;-86
2022/01/27 01:37:18;;;;;;;28.80;15.90;;;;;;;2.83;84.12;100447.58;130648;1267;108954;-88
2022/01/27 01:40:24;;;;;;;29.90;14.80;;;;;;;2.79;84.01;100443.45;131038;1268;107696;-83
2022/01/27 01:43:31;;;;;;;37.40;21.00;;;;;;;2.74;84.15;100436.87;130484;1267;107104;-82
2022/01/27 01:46:37;;;;;;;29.30;14.80;;;;;;;2.68;84.14;100442.35;130451;1267;108801;-81
2022/01/27 01:49:42;;;;;;;33.50;19.40;;;;;;;2.63;84.30;100438.11;130477;1266;108839;-80
2022/01/27 01:52:48;;;;;;;35.80;19.60;;;;;;;2.67;84.21;100436.80;130515;1268;107618;-81
2022/01/27 01:55:53;;;;;;;45.40;26.50;;;;;;;2.66;84.39;100438.24;130502;1268;108828;-81
2022/01/27 01:58:59;;;;;;;38.20;21.10;;;;;;;2.69;84.21;100435.80;130540;1267;108939;-82
2022/01/27 02:02:05;;;;;;;34.10;16.60;;;;;;;2.64;84.37;100431.20;130694;1268;108670;-89
2022/01/27 02:05:11;;;;;;;44.10;23.70;;;;;;;2.64;84.37;100426.65;130659;1268;106855;-89
2022/01/27 02:18:40;;;;;;;44.30;21.70;;;;;;;2.61;84.48;100421.94;130896;1268;105617;-91
2022/01/27 02:21:52;;;;;;;55.70;28.30;;;;;;;2.60;84.51;100417.27;131002;1266;108802;-91
2022/01/27 02:24:58;;;;;;;76.30;37.00;;;;;;;2.51;84.48;100413.92;130928;1268;107840;-90
2022/01/27 02:28:05;;;;;;;67.80;31.80;;;;;;;2.50;84.55;100415.05;130857;1267;107763;-90
2022/01/27 02:31:10;;;;;;;80.80;36.60;;;;;;;2.47;84.78;100408.75;131135;1267;107626;-87
2022/01/27 02:34:16;;;;;;;38.20;17.40;;;;;;;2.50;84.75;100402.39;130877;1268;107488;-90
2022/01/27 02:37:21;;;;;;;73.60;35.80;;;;;;;2.52;84.69;100398.23;130987;1268;107513;-87
2022/01/27 02:40:35;;;;;;;79.40;39.60;;;;;;;2.54;84.78;100395.98;130987;1268;107670;-84
2022/01/27 02:43:41;;;;;;;118.00;58.80;;;;;;;2.54;84.58;100394.08;130642;1268;109126;-83
2022/01/27 02:46:50;;;;;;;83.80;37.00;;;;;;;2.55;84.72;100394.02;130462;1268;108799;-84
2022/01/27 02:49:56;;;;;;;78.00;33.70;;;;;;;2.54;84.80;100399.50;130476;1268;108864;-83
2022/01/27 02:53:01;;;;;;;88.00;37.70;;;;;;;2.55;84.85;100387.50;130505;1266;108308;-84
2022/01/27 02:56:07;;;;;;;64.40;28.90;;;;;;;2.55;84.87;100387.17;130534;1266;107657;-80
2022/01/27 02:59:13;;;;;;;167.30;76.20;;;;;;;2.57;84.84;100385.63;130433;1267;109192;-80
2022/01/27 03:02:20;;;;;;;194.20;91.90;;;;;;;2.59;84.89;100387.23;130464;1267;108704;-81
2022/01/27 03:05:25;;;;;;;53.90;27.90;;;;;;;2.57;84.85;100387.59;130627;1267;108716;-81
2022/01/27 03:08:32;;;;;;;115.50;62.10;;;;;;;2.45;85.03;100387.63;130662;1268;108574;-89
2022/01/27 03:11:45;;;;;;;55.90;29.50;;;;;;;2.42;85.08;100389.08;130665;1266;107607;-86
2022/01/27 03:14:50;;;;;;;32.80;16.40;;;;;;;2.44;85.21;100379.77;130513;1266;107737;-83
2022/01/27 03:17:56;;;;;;;37.60;19.40;;;;;;;2.47;85.12;100373.64;130493;1268;108857;-83
2022/01/27 03:21:01;;;;;;;37.80;19.80;;;;;;;2.49;85.11;100373.66;130548;1267;108862;-82
2022/01/27 03:24:08;;;;;;;35.80;18.80;;;;;;;2.47;85.08;100369.92;130460;1267;108696;-83
2022/01/27 03:27:19;;;;;;;31.80;16.20;;;;;;;2.43;85.12;100376.02;130494;1268;108611;-83
2022/01/27 03:30:24;;;;;;;35.80;16.10;;;;;;;2.39;85.14;100384.54;130522;1268;108701;-82
2022/01/27 03:33:30;;;;;;;32.20;15.60;;;;;;;2.38;85.14;100389.13;130643;1268;108720;-82
2022/01/27 03:36:35;;;;;;;34.10;15.70;;;;;;;2.37;85.45;100391.48;130639;1268;108789;-82
2022/01/27 03:39:42;;;;;;;36.20;17.70;;;;;;;2.32;85.65;100388.43;130510;1266;108971;-82
2022/01/27 03:43:01;;;;;;;42.80;21.40;;;;;;;2.28;85.61;100381.48;130509;1266;107635;-82
2022/01/27 03:46:08;;;;;;;30.60;14.20;;;;;;;2.33;85.61;100378.73;130591;1268;107408;-84
2022/01/27 03:49:13;;;;;;;33.40;15.60;;;;;;;2.30;85.52;100381.39;130609;1267;108979;-83
2022/01/27 03:52:18;;;;;;;31.00;13.60;;;;;;;2.31;85.68;100381.51;130498;1268;108885;-78
2022/01/27 03:55:24;;;;;;;35.50;17.30;;;;;;;2.31;85.58;100375.18;130408;1268;108846;-78
2022/01/27 03:58:29;;;;;;;33.90;16.10;;;;;;;2.38;85.61;100375.06;130388;1268;108578;-81
2022/01/27 04:01:36;;;;;;;43.50;20.80;;;;;;;2.48;85.68;100365.31;130733;1268;108768;-81
2022/01/27 04:04:41;;;;;;;30.30;15.10;;;;;;;2.49;85.42;100361.39;130795;1268;107058;-82
2022/01/27 04:07:47;;;;;;;32.30;14.50;;;;;;;2.48;85.51;100353.36;130511;1268;108800;-81
2022/01/27 04:10:52;;;;;;;33.20;15.70;;;;;;;2.49;85.48;100351.06;130607;1268;108943;-81
2022/01/27 04:13:58;;;;;;;33.10;14.40;;;;;;;2.51;85.53;100345.08;130465;1267;108833;-81
2022/01/27 04:17:03;;;;;;;31.10;14.20;;;;;;;2.54;85.51;100342.45;130624;1268;108884;-82
2022/01/27 04:20:11;;;;;;;28.20;12.90;;;;;;;2.58;85.54;100338.51;130452;1267;108754;-81
2022/01/27 04:23:17;;;;;;;24.60;13.00;;;;;;;2.61;85.33;100330.08;130503;1267;108733;-81
2022/01/27 04:26:29;;;;;;;27.20;12.60;;;;;;;2.70;85.43;100331.77;130558;1266;108557;-81
2022/01/27 04:29:38;;;;;;;31.30;13.80;;;;;;;2.75;85.48;100330.39;130717;1268;108902;-81
2022/01/27 04:32:48;;;;;;;29.20;13.20;;;;;;;2.75;85.38;100335.09;130467;1268;107628;-80
2022/01/27 04:35:57;;;;;;;29.30;13.80;;;;;;;2.79;85.33;100327.66;130469;1268;108776;-82
2022/01/27 04:39:10;;;;;;;33.60;14.70;;;;;;;2.79;85.46;100320.84;130458;1267;108747;-82
2022/01/27 04:42:26;;;;;;;55.80;28.20;;;;;;;2.76;85.42;100325.23;130545;1268;108898;-82
2022/01/27 04:45:40;;;;;;;68.10;32.80;;;;;;;2.76;85.48;100332.79;130559;1267;108652;-80
2022/01/27 04:48:50;;;;;;;58.50;29.60;;;;;;;2.78;85.41;100334.27;130542;1268;108745;-83
2022/01/27 04:51:55;;;;;;;45.10;24.20;;;;;;;2.78;85.52;100325.97;130667;1265;108876;-82
2022/01/27 04:55:05;;;;;;;54.40;28.30;;;;;;;2.78;85.45;100327.36;130699;1268;108991;-85
2022/01/27 04:58:14;;;;;;;40.00;20.40;;;;;;;2.79;85.41;100326.80;130651;1268;108655;-83
2022/01/27 05:01:25;;;;;;;64.20;31.30;;;;;;;2.80;85.38;100319.71;130746;1268;109216;-82
2022/01/27 05:04:34;;;;;;;37.00;18.00;;;;;;;2.82;85.44;100315.02;130482;1268;107833;-83
2022/01/27 05:07:40;;;;;;;41.20;21.80;;;;;;;2.80;85.27;100300.75;130518;1268;107850;-85
2022/01/27 05:10:55;;;;;;;46.30;23.90;;;;;;;2.86;85.37;100291.56;130623;1268;107684;-86
2022/01/27 05:14:08;;;;;;;33.90;18.00;;;;;;;2.93;85.31;100278.95;130597;1267;106689;-79
2022/01/27 05:17:17;;;;;;;42.40;22.50;;;;;;;2.96;85.15;100281.54;130579;1267;108765;-75
2022/01/27 05:20:22;;;;;;;34.80;18.20;;;;;;;2.96;84.96;100282.40;130469;1268;108804;-79
2022/01/27 05:23:28;;;;;;;50.10;27.60;;;;;;;2.94;84.77;100291.66;130405;1268;108960;-80
2022/01/27 05:26:34;;;;;;;295.20;136.70;;;;;;;2.89;84.82;100296.63;130361;1268;108948;-81
2022/01/27 05:29:39;;;;;;;201.10;95.40;;;;;;;2.85;84.76;100285.23;130526;1267;107709;-82
2022/01/27 05:32:45;;;;;;;56.60;32.90;;;;;;;2.85;84.79;100272.26;130625;1267;107744;-81
2022/01/27 05:35:50;;;;;;;149.80;69.50;;;;;;;2.89;84.76;100273.60;130577;1268;108868;-83
2022/01/27 05:38:56;;;;;;;110.30;50.10;;;;;;;2.94;84.74;100275.54;130526;1268;108032;-82
2022/01/27 05:42:01;;;;;;;114.00;53.50;;;;;;;2.97;84.69;100279.02;130669;1266;108731;-81
2022/01/27 05:45:08;;;;;;;135.30;55.50;;;;;;;2.98;84.43;100272.30;130672;1268;108578;-83
2022/01/27 05:48:13;;;;;;;77.70;34.50;;;;;;;2.90;84.36;100274.75;130500;1267;108910;-80
2022/01/27 05:51:19;;;;;;;249.30;98.70;;;;;;;2.85;84.52;100264.52;130426;1268;109141;-78
2022/01/27 05:54:24;;;;;;;47.60;23.70;;;;;;;2.82;84.61;100266.48;130425;1268;108694;-82
2022/01/27 05:57:29;;;;;;;66.00;34.80;;;;;;;2.83;84.65;100272.08;130512;1266;108709;-84
2022/01/27 06:00:35;;;;;;;65.10;35.20;;;;;;;2.87;84.67;100262.51;130577;1268;107760;-82
2022/01/27 06:03:42;;;;;;;64.80;35.70;;;;;;;2.91;84.64;100267.30;130575;1266;108883;-83
2022/01/27 06:06:47;;;;;;;62.00;34.40;;;;;;;2.90;84.48;100261.40;130550;1268;108588;-80
2022/01/27 06:09:52;;;;;;;44.70;23.90;;;;;;;2.84;84.57;100248.78;130438;1267;108913;-76
2022/01/27 06:12:58;;;;;;;44.00;23.50;;;;;;;2.78;84.62;100239.55;130480;1268;108782;-78
2022/01/27 06:16:09;;;;;;;47.80;23.90;;;;;;;2.74;84.87;100237.00;130504;1268;107059;-78
2022/01/27 06:19:15;;;;;;;34.90;17.20;;;;;;;2.75;84.80;100235.69;130538;1267;108506;-82
2022/01/27 06:22:21;;;;;;;43.40;24.90;;;;;;;2.78;84.94;100227.62;130487;1268;107183;-80
2022/01/27 06:25:30;;;;;;;34.00;18.80;;;;;;;2.84;84.76;100224.23;130458;1268;108996;-79
2022/01/27 06:28:35;;;;;;;40.20;20.80;;;;;;;2.82;84.74;100218.02;130565;1267;108806;-81
2022/01/27 06:31:41;;;;;;;33.50;16.80;;;;;;;2.80;84.85;100209.88;130504;1268;108890;-81
2022/01/27 06:34:47;;;;;;;39.10;19.20;;;;;;;2.79;84.64;100204.21;130483;1268;108702;-81
2022/01/27 06:37:52;;;;;;;42.80;18.80;;;;;;;2.81;84.92;100204.19;130454;1268;108928;-84
2022/01/27 06:40:58;;;;;;;46.70;24.10;;;;;;;2.86;84.87;100206.50;130623;1268;108634;-84
2022/01/27 06:44:03;;;;;;;40.20;20.80;;;;;;;2.90;84.84;100206.05;130559;1268;108955;-78
2022/01/27 06:47:09;;;;;;;39.30;20.20;;;;;;;2.90;84.85;100200.05;130405;1268;108661;-80
2022/01/27 06:50:14;;;;;;;38.30;18.10;;;;;;;2.93;84.78;100188.45;130613;1268;108836;-81
2022/01/27 06:53:20;;;;;;;36.50;18.80;;;;;;;2.91;84.67;100187.13;130566;1268;108072;-85
2022/01/27 06:56:25;;;;;;;40.50;19.90;;;;;;;2.91;84.73;100184.52;130511;1267;108640;-82
2022/01/27 06:59:31;;;;;;;41.00;19.80;;;;;;;2.90;84.69;100186.38;130502;1268;108830;-82
2022/01/27 07:02:37;;;;;;;42.60;21.30;;;;;;;2.87;84.67;100184.11;130461;1268;108744;-82
2022/01/27 07:05:42;;;;;;;39.90;19.00;;;;;;;2.89;84.70;100189.55;130465;1268;108564;-81
2022/01/27 07:08:47;;;;;;;358.80;158.10;;;;;;;2.92;84.57;100196.58;130518;1268;108723;-79
2022/01/27 07:11:53;;;;;;;228.90;92.70;;;;;;;2.91;84.69;100191.40;130512;1268;108814;-81
2022/01/27 07:14:58;;;;;;;79.20;33.60;;;;;;;2.96;84.75;100181.92;130525;1268;107667;-79
2022/01/27 07:18:04;;;;;;;122.40;50.60;;;;;;;2.98;84.50;100186.85;130382;1267;108698;-78
2022/01/27 07:21:10;;;;;;;172.40;67.30;;;;;;;2.97;84.54;100177.29;130388;1268;108813;-78
2022/01/27 07:24:15;;;;;;;130.30;55.00;;;;;;;2.97;84.44;100171.16;130427;1267;108865;-79
2022/01/27 07:27:20;;;;;;;154.90;72.80;;;;;;;2.98;84.55;100173.20;130457;1266;108692;-79
2022/01/27 07:30:26;;;;;;;122.60;64.30;;;;;;;3.01;84.69;100165.92;130559;1265;108855;-79
2022/01/27 07:33:32;;;;;;;78.00;40.70;;;;;;;3.09;84.68;100158.73;130426;1268;108453;-78
2022/01/27 07:36:38;;;;;;;43.00;20.80;;;;;;;3.16;84.58;100156.45;130620;1268;108697;-80
2022/01/27 07:39:43;;;;;;;42.90;22.40;;;;;;;3.19;84.43;100150.10;130451;1268;108983;-79
2022/01/27 07:42:49;;;;;;;39.80;20.40;;;;;;;3.19;84.21;100149.95;130539;1268;108710;-81
2022/01/27 07:45:55;;;;;;;37.70;19.20;;;;;;;3.15;84.20;100159.11;130505;1268;108705;-80
2022/01/27 07:49:00;;;;;;;35.50;17.50;;;;;;;3.14;84.36;100156.20;130452;1268;108801;-79
2022/01/27 07:52:06;;;;;;;29.20;15.70;;;;;;;3.16;84.43;100149.43;130479;1268;108646;-77
2022/01/27 07:55:12;;;;;;;29.30;15.60;;;;;;;3.19;84.25;100147.16;130573;1268;108783;-77
2022/01/27 07:58:18;;;;;;;27.10;15.60;;;;;;;3.24;84.34;100138.68;130291;1268;161527;-82
2022/01/27 08:01:23;;;;;;;26.00;14.50;;;;;;;3.27;84.18;100132.27;130535;1268;108706;-79
2022/01/27 08:04:28;;;;;;;27.50;15.80;;;;;;;3.28;84.13;100122.69;130450;1267;108914;-81
2022/01/27 08:07:34;;;;;;;27.20;14.50;;;;;;;3.26;83.84;100119.85;130715;1267;108873;-78
2022/01/27 08:10:40;;;;;;;29.20;16.10;;;;;;;3.14;83.71;100108.91;130411;1268;108653;-78
2022/01/27 08:13:45;;;;;;;28.00;16.30;;;;;;;3.12;84.28;100099.61;130406;1268;108694;-78
2022/01/27 08:16:51;;;;;;;31.10;17.40;;;;;;;3.18;84.13;100097.43;130472;1268;109165;-80
2022/01/27 08:19:58;;;;;;;27.40;15.70;;;;;;;3.25;84.26;100092.04;130374;1268;108664;-81
2022/01/27 08:23:05;;;;;;;26.10;14.30;;;;;;;3.34;84.29;100084.48;130669;1268;108896;-80
2022/01/27 08:26:14;;;;;;;28.30;14.60;;;;;;;3.43;83.92;100081.35;130404;1268;109711;-79
2022/01/27 08:29:22;;;;;;;27.90;15.50;;;;;;;3.49;83.88;100079.18;130415;1268;108724;-78
2022/01/27 08:32:40;;;;;;;28.00;14.70;;;;;;;3.45;83.57;100074.17;130577;1266;108783;-82
2022/01/27 08:35:45;;;;;;;28.30;17.30;;;;;;;3.41;83.75;100077.68;130517;1268;108644;-82
2022/01/27 08:38:51;;;;;;;28.00;17.20;;;;;;;3.39;83.57;100084.86;130456;1268;107745;-83
2022/01/27 08:41:57;;;;;;;136.00;60.10;;;;;;;3.39;83.91;100084.34;130375;1268;108834;-75
2022/01/27 08:45:02;;;;;;;183.80;82.00;;;;;;;3.45;83.72;100082.12;130594;1268;108592;-78
2022/01/27 08:48:10;;;;;;;136.30;61.70;;;;;;;3.49;83.75;100074.41;130440;1267;108651;-80
2022/01/27 08:51:20;;;;;;;71.80;34.50;;;;;;;3.53;83.51;100076.61;130655;1267;108974;-84
2022/01/27 08:54:27;;;;;;;200.90;88.70;;;;;;;3.51;83.55;100071.33;130749;1268;108756;-79
2022/01/27 08:57:33;;;;;;;57.80;27.40;;;;;;;3.52;83.56;100075.27;130499;1267;108952;-79
2022/01/27 09:00:39;;;;;;;95.00;45.10;;;;;;;3.49;83.19;100068.98;130395;1268;108664;-79
2022/01/27 09:03:45;;;;;;;43.80;23.90;;;;;;;3.46;83.48;100060.45;130447;1268;109701;-77
2022/01/27 09:06:51;;;;;;;77.50;43.30;;;;;;;3.47;83.62;100056.84;130542;1268;108696;-78
2022/01/27 09:09:56;;;;;;;74.50;40.00;;;;;;;3.52;83.58;100052.95;130607;1267;108779;-78
2022/01/27 09:13:03;;;;;;;34.90;20.80;;;;;;;3.55;83.13;100050.98;130627;1268;108653;-82
2022/01/27 09:16:10;;;;;;;33.30;20.00;;;;;;;3.51;83.35;100050.35;130530;1268;108809;-79
2022/01/27 09:19:17;;;;;;;29.20;16.50;;;;;;;3.50;83.08;100038.16;130482;1267;108922;-78
2022/01/27 09:22:23;;;;;;;53.50;30.20;;;;;;;3.46;83.05;100045.11;130545;1268;108841;-80
2022/01/27 09:25:40;;;;;;;45.70;25.30;;;;;;;3.39;82.94;100038.60;130419;1268;109094;-79
2022/01/27 09:28:48;;;;;;;54.80;30.80;;;;;;;3.34;83.09;100032.80;130574;1266;108690;-81
2022/01/27 09:31:53;;;;;;;71.40;39.90;;;;;;;3.38;83.20;100031.30;130554;1268;107721;-83
2022/01/27 09:34:59;;;;;;;33.20;18.40;;;;;;;3.42;83.07;100026.94;130511;1266;108675;-77
2022/01/27 09:38:05;;;;;;;36.90;21.40;;;;;;;3.51;83.07;100029.05;130432;1268;108623;-77
2022/01/27 09:41:11;;;;;;;51.20;28.30;;;;;;;3.51;82.61;100023.11;130450;1268;108641;-77
2022/01/27 09:44:18;;;;;;;34.60;21.00;;;;;;;3.49;82.65;100010.78;130522;1268;108851;-78
2022/01/27 09:47:29;;;;;;;35.50;20.30;;;;;;;3.46;82.73;100009.41;130422;1267;108751;-78
2022/01/27 09:50:47;;;;;;;24.30;13.60;;;;;;;3.40;82.53;100007.77;130334;1268;108776;-78
2022/01/27 09:53:56;;;;;;;21.80;13.50;;;;;;;3.39;82.67;100003.23;130444;1268;108947;-76
2022/01/27 09:57:02;;;;;;;19.00;10.70;;;;;;;3.43;82.75;99992.95;130603;1268;109040;-76
2022/01/27 10:00:09;;;;;;;22.30;14.70;;;;;;;3.52;82.73;99986.30;130517;1268;107736;-79
2022/01/27 10:03:21;;;;;;;44.20;27.10;;;;;;;3.64;82.73;99978.20;130432;1268;108906;-78
2022/01/27 10:06:30;;;;;;;23.60;12.90;;;;;;;3.73;82.60;99971.02;130462;1268;108780;-79
2022/01/27 10:09:36;;;;;;;21.80;12.40;;;;;;;3.80;82.48;99969.05;130734;1267;108894;-80
2022/01/27 10:12:46;;;;;;;24.30;14.60;;;;;;;3.82;82.40;99954.88;130918;1268;107610;-80
2022/01/27 10:15:54;;;;;;;26.70;15.20;;;;;;;3.85;82.22;99956.00;130591;1268;108629;-83
2022/01/27 10:19:07;;;;;;;19.80;11.20;;;;;;;3.89;82.03;99950.55;130528;1268;108734;-80
2022/01/27 10:22:15;;;;;;;16.20;9.10;;;;;;;3.93;81.64;99947.34;130439;1268;108957;-78
2022/01/27 10:25:21;;;;;;;15.00;9.10;;;;;;;3.91;81.48;99948.45;130586;1268;108772;-77
2022/01/27 10:28:35;;;;;;;15.50;9.20;;;;;;;3.89;81.24;99950.09;130456;1268;108910;-79
2022/01/27 10:31:42;;;;;;;15.00;9.60;;;;;;;3.80;81.42;99944.46;130501;1268;108652;-81
2022/01/27 10:34:58;;;;;;;17.60;10.90;;;;;;;3.80;81.42;99936.38;130574;1268;108953;-79
2022/01/27 10:38:07;;;;;;;17.10;9.50;;;;;;;3.79;81.56;99929.76;130439;1268;108829;-82
2022/01/27 10:41:13;;;;;;;15.20;8.30;;;;;;;3.80;81.34;99924.73;130528;1268;108169;-82
2022/01/27 10:44:19;;;;;;;14.30;8.10;;;;;;;3.81;81.67;99925.02;130643;1268;108814;-81
2022/01/27 10:47:32;;;;;;;12.70;7.60;;;;;;;3.83;81.00;99918.89;130567;1268;108879;-79
2022/01/27 10:50:53;;;;;;;11.10;7.50;;;;;;;3.84;80.74;99905.20;130344;1268;108634;-80
2022/01/27 10:54:04;;;;;;;12.90;7.80;;;;;;;3.87;80.87;99900.09;130457;1268;108752;-82
2022/01/27 10:57:11;;;;;;;11.90;7.60;;;;;;;3.96;80.97;99891.95;130444;1268;108672;-81
2022/01/27 11:00:20;;;;;;;12.70;7.70;;;;;;;4.00;80.83;99883.30;130444;1268;107749;-81
2022/01/27 11:03:26;;;;;;;13.00;8.00;;;;;;;4.04;80.51;99878.20;130452;1268;108753;-81
2022/01/27 11:06:33;;;;;;;12.70;7.60;;;;;;;4.08;80.52;99878.53;130458;1268;108832;-79
2022/01/27 11:09:42;;;;;;;46.40;25.70;;;;;;;4.13;80.38;99875.37;130370;1268;109439;-78
2022/01/27 11:12:49;;;;;;;76.40;38.20;;;;;;;4.15;80.34;99872.90;130360;1265;108672;-82
2022/01/27 11:15:56;;;;;;;38.70;20.30;;;;;;;4.16;79.94;99867.39;130328;1268;108736;-81
2022/01/27 11:19:19;;;;;;;78.60;36.90;;;;;;;4.24;80.64;99862.02;130443;1268;108821;-85
2022/01/27 11:22:47;;;;;;;;;;;;;;;4.30;80.36;99862.02;130477;1268;108830;-84
2022/01/27 11:25:55;;;;;;;170.30;80.60;;;;;;;4.30;80.83;99852.53;130426;1268;107650;-84
2022/01/27 11:29:02;;;;;;;45.60;23.50;;;;;;;4.29;80.64;99854.51;130453;1268;108863;-81
2022/01/27 11:32:17;;;;;;;77.60;35.80;;;;;;;4.24;80.75;99844.94;130682;1267;108770;-80
2022/01/27 11:35:24;;;;;;;57.10;30.10;;;;;;;4.19;80.81;99850.25;130620;1268;108821;-80
2022/01/27 11:38:30;;;;;;;49.20;23.90;;;;;;;4.14;80.71;99837.61;130623;1267;108970;-84
2022/01/27 11:41:44;;;;;;;36.70;21.50;;;;;;;4.15;80.81;99830.68;130600;1268;108804;-78
2022/01/27 11:44:50;;;;;;;38.20;21.70;;;;;;;4.15;80.47;99831.19;130575;1268;108685;-83
2022/01/27 11:47:58;;;;;;;22.00;14.20;;;;;;;4.13;80.64;99823.23;130517;1268;108773;-83
2022/01/27 11:51:13;;;;;;;25.00;16.00;;;;;;;4.20;80.63;99824.24;130411;1268;108931;-82
2022/01/27 11:54:29;;;;;;;19.60;12.00;;;;;;;4.24;80.62;99817.04;130569;1268;108678;-83
2022/01/27 11:57:43;;;;;;;30.20;17.60;;;;;;;4.28;80.70;99808.88;130709;1268;108996;-85
2022/01/27 12:01:11;;;;;;;20.30;12.80;;;;;;;4.26;80.75;99807.43;130642;1268;108727;-83
2022/01/27 12:04:17;;;;;;;22.00;14.20;;;;;;;4.22;80.71;99805.83;130511;1268;107815;-81
2022/01/27 12:07:23;;;;;;;19.40;11.60;;;;;;;4.15;80.79;99799.34;130541;1268;107536;-79
2022/01/27 12:10:47;;;;;;;22.70;13.10;;;;;;;4.10;80.89;99794.27;130381;1268;108648;-77
2022/01/27 12:14:00;;;;;;;22.50;13.40;;;;;;;4.07;80.92;99790.81;130446;1268;108492;-79
2022/01/27 12:17:23;;;;;;;24.90;16.20;;;;;;;4.07;80.89;99785.36;130375;1268;109040;-78
2022/01/27 12:20:46;;;;;;;102.80;52.30;;;;;;;4.05;80.95;99777.60;130376;1268;108771;-78
2022/01/27 12:24:18;;;;;;;51.50;33.20;;;;;;;4.00;80.98;99772.05;130381;1268;109117;-80
2022/01/27 12:27:25;;;;;;;20.20;12.20;;;;;;;3.95;81.04;99765.39;130384;1267;108962;-79
2022/01/27 12:30:30;;;;;;;25.10;15.00;;;;;;;3.87;80.97;99756.81;130688;1268;108875;-80
2022/01/27 12:33:36;;;;;;;17.30;11.10;;;;;;;3.77;81.02;99749.70;130541;1268;109036;-79
2022/01/27 12:36:54;;;;;;;15.20;9.10;;;;;;;3.71;81.13;99741.75;130405;1268;108837;-80
2022/01/27 12:40:02;;;;;;;122.10;55.20;;;;;;;3.66;81.25;99730.71;130339;1267;108809;-81
2022/01/27 12:43:14;;;;;;;82.50;42.50;;;;;;;3.63;81.29;99727.13;130488;1267;109185;-80
2022/01/27 12:46:19;;;;;;;54.50;26.90;;;;;;;3.62;81.20;99731.60;130562;1268;108676;-80
2022/01/27 12:49:39;;;;;;;51.90;26.30;;;;;;;3.57;81.27;99728.48;130444;1267;108822;-79
2022/01/27 12:52:47;;;;;;;35.40;18.10;;;;;;;3.54;81.19;99730.77;130463;1268;109038;-80
2022/01/27 12:55:54;;;;;;;72.20;36.10;;;;;;;3.47;81.15;99730.11;130389;1268;108901;-79
2022/01/27 12:59:00;;;;;;;40.60;22.10;;;;;;;3.41;81.16;99722.45;130310;1267;108867;-79
2022/01/27 13:02:07;;;;;;;51.10;29.20;;;;;;;3.38;81.35;99719.08;130244;1268;109254;-80
2022/01/27 13:05:13;;;;;;;22.80;12.60;;;;;;;3.32;81.20;99715.59;130497;1267;108772;-78
2022/01/27 13:08:20;;;;;;;18.90;11.90;;;;;;;3.34;81.14;99716.55;130558;1268;108740;-79
2022/01/27 13:11:39;;;;;;;18.20;11.20;;;;;;;3.37;81.00;99712.40;130568;1266;108815;-79
2022/01/27 13:15:05;;;;;;;16.50;10.30;;;;;;;3.40;81.08;99713.95;130570;1268;108971;-79
2022/01/27 13:18:16;;;;;;;15.70;10.10;;;;;;;3.43;81.10;99704.08;130584;1267;109040;-81
2022/01/27 13:21:28;;;;;;;15.70;10.20;;;;;;;3.42;81.04;99696.27;130744;1268;107642;-77
2022/01/27 13:24:43;;;;;;;18.60;10.90;;;;;;;3.38;81.02;99692.35;130501;1268;107123;-80
2022/01/27 13:28:06;;;;;;;17.20;9.60;;;;;;;3.33;80.97;99687.39;130669;1267;108930;-79
2022/01/27 13:31:14;;;;;;;17.80;10.00;;;;;;;3.32;81.21;99680.44;130371;1268;108758;-77
2022/01/27 13:34:20;;;;;;;14.90;9.40;;;;;;;3.37;81.05;99673.25;130501;1266;108904;-78
2022/01/27 13:37:34;;;;;;;22.70;12.20;;;;;;;3.38;80.83;99671.75;130427;1268;108758;-81
2022/01/27 13:44:07;;;;;;;19.20;12.10;;;;;;;3.29;80.96;99662.23;130463;1267;107784;-82
2022/01/27 13:47:13;;;;;;;15.90;9.70;;;;;;;3.26;81.00;99660.88;130741;1268;108883;-82
2022/01/27 13:50:20;;;;;;;16.70;10.80;;;;;;;3.21;80.94;99655.70;130475;1268;108971;-84
2022/01/27 13:53:26;;;;;;;16.50;10.30;;;;;;;3.13;80.97;99650.15;130562;1266;108880;-83
2022/01/27 13:56:44;;;;;;;18.10;10.70;;;;;;;3.04;80.92;99644.15;130481;1268;108962;-83
2022/01/27 13:59:54;;;;;;;15.60;10.00;;;;;;;3.01;81.19;99635.63;130476;1266;108452;-81
2022/01/27 14:03:13;;;;;;;18.40;10.60;;;;;;;3.03;81.08;99633.34;130603;1268;108776;-80
2022/01/27 14:06:19;;;;;;;16.30;9.60;;;;;;;3.03;81.08;99625.80;130653;1267;108466;-79
2022/01/27 14:09:29;;;;;;;73.40;40.50;;;;;;;3.00;81.07;99619.70;130579;1267;108679;-76
2022/01/27 14:12:49;;;;;;;42.90;23.90;;;;;;;2.99;81.10;99611.70;130450;1267;108749;-79
2022/01/27 14:15:56;;;;;;;63.10;32.60;;;;;;;2.97;81.05;99608.73;130521;1267;108954;-81
2022/01/27 14:19:12;;;;;;;45.50;22.90;;;;;;;2.90;81.03;99604.85;130588;1268;108907;-80
2022/01/27 14:22:20;;;;;;;56.90;29.50;;;;;;;2.83;81.35;99595.02;130566;1268;106644;-80
2022/01/27 14:25:39;;;;;;;87.50;40.50;;;;;;;2.83;81.25;99589.77;130507;1268;106736;-78
2022/01/27 14:28:45;;;;;;;93.40;45.70;;;;;;;2.88;81.43;99592.88;130597;1267;108774;-79
2022/01/27 14:31:51;;;;;;;74.80;37.40;;;;;;;2.88;81.18;99593.56;130515;1268;108191;-80
2022/01/27 14:34:56;;;;;;;59.60;32.60;;;;;;;2.87;81.18;99589.48;130500;1268;108780;-80
2022/01/27 14:38:02;;;;;;;34.60;21.60;;;;;;;2.81;81.22;99578.52;130434;1267;108897;-80
2022/01/27 14:41:08;;;;;;;26.00;13.90;;;;;;;2.76;81.56;99576.79;130443;1268;108929;-78